Data for 08/28/2017

Time Sea-Level Adjusted Pressure Absolute Pressure Temperature Relative Humidity Dew Point   
(mb) (inHg) (mb) (inHg) (C) (F) (%) (C) (F)
00:05 1024 30.24 853 25.19 17.1 62.9 32 0.5 32.8
00:10 1024 30.24 853 25.19 16.8 62.3 33 0.7 33.3
00:15 1024 30.24 853 25.19 16.3 61.4 35 0.9 33.6
00:20 1024 30.24 853 25.19 16 60.9 34 0.3 32.5
00:25 1024 30.24 853 25.19 16.4 61.4 33 -0 31.9
00:30 1024 30.24 853 25.19 16.8 62.2 32 -0.1 31.8
00:35 1024 30.24 853 25.19 16.9 62.4 31 -0.2 31.7
00:40 1024 30.24 853 25.19 16.8 62.3 31 -0.2 31.6
00:45 1024 30.24 853 25.19 16.8 62.2 33 0.5 32.9
00:50 1024 30.24 853 25.19 16.1 61.1 33 0.1 32.1
00:55 1024 30.24 853 25.19 16.6 61.9 30 -1.1 30.1
01:00 1024 30.24 853 25.19 17.2 63 30 -0.4 31.3
01:05 1024 30.24 853 25.19 17 62.7 30 -0.7 30.8
01:10 1024 30.24 854 25.22 16.9 62.4 31 -0.3 31.5
01:15 1024 30.24 854 25.22 17.3 63.1 28 -1.2 29.8
01:20 1024 30.24 854 25.22 17.1 62.9 29 -1.1 30
01:25 1024 30.24 854 25.22 16.8 62.2 30 -0.7 30.8
01:30 1024 30.24 854 25.22 16.5 61.8 30 -0.9 30.4
01:35 1024 30.24 854 25.22 16.6 61.8 30 -1.2 29.9
01:40 1024 30.24 853 25.19 16.6 61.8 30 -0.8 30.5
01:45 1024 30.24 853 25.19 16.5 61.7 30 -1.2 29.9
01:50 1024 30.24 854 25.22 16.8 62.2 28 -1.6 29.1
01:55 1024 30.24 854 25.22 17.1 62.8 28 -1.4 29.4
02:00 1024 30.24 854 25.22 17.1 62.8 28 -1.4 29.5
02:05 1024 30.24 854 25.22 17.2 62.9 28 -1.6 29.2
02:10 1024 30.24 854 25.22 17.2 63 28 -1.3 29.6
02:15 1024 30.24 854 25.22 17.3 63.1 28 -1.4 29.4
02:20 1024 30.24 854 25.22 17.1 62.8 29 -1.1 30
02:25 1024 30.24 854 25.22 16.8 62.2 30 -0.9 30.4
02:30 1024 30.24 854 25.22 16.6 61.9 29 -1.4 29.5
02:35 1024 30.24 854 25.22 16.8 62.3 30 -0.9 30.3
02:40 1024 30.24 854 25.22 16.5 61.7 30 -0.8 30.5
02:45 1024 30.24 854 25.22 16.3 61.3 32 -0.5 31
02:50 1024 30.24 853 25.19 16.1 61 30 -1.6 29.2
02:55 1024 30.24 853 25.19 16.8 62.2 29 -1.1 30
03:00 1024 30.24 853 25.19 16.5 61.7 30 -0.9 30.4
03:05 1024 30.24 854 25.22 16.3 61.3 30 -1.1 30.1
03:10 1024 30.24 853 25.19 16.4 61.5 30 -1.3 29.6
03:15 1024 30.24 853 25.19 16.8 62.3 30 -0.7 30.8
03:20 1024 30.24 853 25.19 16.5 61.7 30 -1.1 30
03:25 1024 30.24 853 25.19 16.6 61.9 30 -0.8 30.5
03:30 1024 30.24 853 25.19 16.5 61.7 30 -0.9 30.5
03:35 1024 30.24 853 25.19 16.4 61.6 30 -1.1 30
03:40 1024 30.24 853 25.19 16.6 61.8 30 -0.8 30.5
03:45 1024 30.24 853 25.19 16.5 61.6 30 -1 30.2
03:50 1024 30.24 853 25.19 16.6 61.9 30 -1 30.2
03:55 1024 30.24 853 25.19 16.6 61.9 30 -0.8 30.5
04:00 1024 30.24 853 25.19 16.5 61.7 30 -0.9 30.4
04:05 1024 30.24 853 25.19 16.6 61.9 29 -1.2 29.9
04:10 1024 30.24 853 25.19 16.9 62.3 29 -1.1 30.1
04:15 1024 30.24 853 25.19 17.1 62.8 29 -0.9 30.3
04:20 1024 30.24 853 25.19 16.8 62.3 30 -0.9 30.4
04:25 1024 30.24 853 25.19 16.8 62.2 29 -1 30.2
04:30 1024 30.24 853 25.19 16.8 62.3 29 -1.1 30
04:35 1024 30.24 853 25.19 16.9 62.4 30 -0.8 30.6
04:40 1024 30.24 853 25.19 16.5 61.7 31 -0.6 31
04:45 1024 30.24 853 25.19 16.1 61 32 -0.6 30.9
04:50 1024 30.24 854 25.22 15.9 60.6 33 -0.4 31.2
04:55 1024 30.24 854 25.22 15.6 60.1 33 -0.7 30.8
05:00 1024 30.24 854 25.22 15.5 59.9 33 -0.6 30.9
05:05 1024 30.24 854 25.22 15.5 60 32 -1 30.2
05:10 1024 30.24 854 25.22 15.8 60.5 31 -1.1 29.9
05:15 1025 30.27 854 25.22 15.9 60.7 33 -0.4 31.4
05:20 1025 30.27 854 25.22 15.2 59.3 35 -0.1 31.8
05:25 1025 30.27 854 25.22 15 58.9 36 0 32
05:30 1025 30.27 854 25.22 14.7 58.4 38 0.5 33
05:35 1025 30.27 854 25.22 14.3 57.8 38 0.4 32.6
05:40 1025 30.27 854 25.22 14.2 57.6 39 0.6 33
05:45 1025 30.27 854 25.22 13.8 56.9 41 1 33.8
05:50 1025 30.27 854 25.22 13.8 56.8 41 0.7 33.3
05:55 1025 30.27 854 25.22 13.8 56.9 39 0.3 32.6
06:00 1025 30.27 854 25.22 13.8 56.9 40 0.5 32.9
06:05 1025 30.27 854 25.22 13.6 56.4 42 1.1 34
06:10 1025 30.27 854 25.22 13 55.4 45 1.3 34.4
06:15 1025 30.27 854 25.22 12.7 54.8 45 1 33.8
06:20 1025 30.27 854 25.22 12.6 54.8 45 1.1 33.9
06:25 1025 30.27 854 25.22 12.7 54.8 46 1.3 34.4
06:30 1025 30.27 854 25.22 12.7 54.9 43 0.6 33.1
06:35 1025 30.27 854 25.22 13.2 55.7 42 0.5 33
06:40 1025 30.27 854 25.22 13.6 56.5 41 0.6 33
06:45 1025 30.27 854 25.22 13.6 56.5 42 1.1 33.9
06:50 1025 30.27 854 25.22 13.5 56.4 42 1.1 33.9
06:55 1025 30.27 854 25.22 13.8 56.9 39 0.2 32.3
07:00 1025 30.27 854 25.22 14.4 57.9 38 0.3 32.5
07:05 1025 30.27 854 25.22 14.7 58.4 39 0.9 33.6
07:10 1025 30.27 854 25.22 14.7 58.4 38 0.7 33.3
07:15 1025 30.27 854 25.22 14.8 58.6 39 0.9 33.7
07:20 1025 30.27 854 25.22 15 59.1 40 1.6 34.9
07:25 1025 30.27 854 25.22 15.1 59.2 39 1.4 34.6
07:30 1025 30.27 854 25.22 15.3 59.6 39 1.7 35.1
07:35 1025 30.27 854 25.22 15.7 60.2 37 1.2 34.2
07:40 1025 30.27 854 25.22 16.1 61 38 2 35.7
07:45 1025 30.27 854 25.22 16.6 61.8 36 1.4 34.6
07:50 1025 30.27 854 25.22 16.9 62.4 42 4.2 39.5
07:55 1025 30.27 855 25.25 17.2 62.9 38 3 37.4
08:00 1025 30.27 854 25.22 17.2 63 36 1.9 35.5
08:05 1025 30.27 855 25.25 17.3 63.1 40 3.8 38.8
08:10 1025 30.27 854 25.22 17.6 63.6 36 2.6 36.7
08:15 1025 30.27 854 25.22 18 64.4 36 2.8 37.1
08:20 1025 30.27 854 25.22 18.2 64.8 37 3.4 38.1
08:25 1025 30.27 854 25.22 18.6 65.5 33 2.2 36
08:30 1025 30.27 854 25.22 19 66.2 33 2.3 36.2
08:35 1025 30.27 854 25.22 19.6 67.3 31 2.1 35.8
08:40 1025 30.27 854 25.22 20 68.1 34 3.7 38.7
08:45 1025 30.27 854 25.22 20.5 68.9 30 2.7 36.8
08:50 1025 30.27 854 25.22 20.8 69.4 30 2.6 36.7
08:55 1025 30.27 854 25.22 21.7 71.1 28 2.9 37.1
09:00 1025 30.27 854 25.22 22.5 72.4 28 3.1 37.6
09:05 1025 30.27 854 25.22 23 73.4 26 2.5 36.5
09:10 1025 30.27 854 25.22 23.2 73.7 25 2.5 36.6
09:15 1025 30.27 854 25.22 23.2 73.8 26 2.7 36.9
09:20 1025 30.27 854 25.22 23.3 73.9 24 1.9 35.4
09:25 1025 30.27 854 25.22 23.8 74.9 24 2.4 36.4
09:30 1025 30.27 854 25.22 24.1 75.4 26 3.6 38.5
09:35 1025 30.27 854 25.22 24.4 76 25 3.2 37.8
09:40 1025 30.27 854 25.22 24.4 75.9 26 3.7 38.7
09:45 1025 30.27 854 25.22 24 75.1 23 2.1 35.8
09:50 1025 30.27 854 25.22 24 75.2 21 0.8 33.4
09:55 1025 30.27 854 25.22 24.3 75.8 21 0.6 33
10:00 1025 30.27 854 25.22 24.6 76.3 23 2.1 35.7
10:05 1025 30.27 854 25.22 24.8 76.6 21 1.1 33.9
10:10 1025 30.27 854 25.22 25.7 78.2 18 0.1 32.1
10:15 1025 30.27 854 25.22 25.5 77.9 21 1.7 35.1
10:20 1025 30.27 854 25.22 25 76.9 20 1 33.9
10:25 1025 30.27 854 25.22 25.6 78 19 0.7 33.3
10:30 1025 30.27 854 25.22 26.4 79.4 19 0.8 33.5
10:35 1025 30.27 854 25.22 26.5 79.7 20 2 35.5
10:40 1025 30.27 854 25.22 26.4 79.5 20 2.1 35.8
10:45 1025 30.27 854 25.22 26.7 80 19 1.6 34.8
10:50 1025 30.27 854 25.22 26.4 79.5 15 -1.7 29
10:55 1025 30.27 854 25.22 26.6 79.9 16 -1.3 29.6
11:00 1025 30.27 854 25.22 27.2 80.9 15 -1.3 29.7
11:05 1025 30.27 854 25.22 27.7 81.9 14 -1.5 29.3
11:10 1025 30.27 854 25.22 27.4 81.3 15 -1.2 29.8
11:15 1025 30.27 854 25.22 27.9 82.1 14 -1.6 29
11:20 1025 30.27 854 25.22 28.6 83.5 14 -1.7 29
11:25 1025 30.27 854 25.22 28.2 82.7 14 -1.7 28.9
11:30 1024 30.24 854 25.22 27.7 81.8 13 -2.7 27.1
11:35 1024 30.24 854 25.22 27.6 81.6 13 -2.9 26.7
11:40 1024 30.24 854 25.22 28.3 82.9 12 -3 26.6
11:45 1024 30.24 853 25.19 28.4 83.2 12 -4 24.9
11:50 1024 30.24 853 25.19 29.3 84.8 12 -2.4 27.7
11:55 1024 30.24 853 25.19 29.1 84.3 12 -2.8 26.9
12:00 1024 30.24 853 25.19 29 84.1 12 -3.1 26.5
12:05 1024 30.24 853 25.19 29.9 85.8 10 -4.1 24.6
12:10 1024 30.24 853 25.19 30.5 86.8 11 -3.5 25.7
12:15 1024 30.24 853 25.19 30.6 87 10 -3.6 25.5
12:20 1024 30.24 853 25.19 30.3 86.5 11 -2.6 27.3
12:25 1024 30.24 853 25.19 30.2 86.3 11 -3.5 25.6
12:30 1024 30.24 853 25.19 29.8 85.7 10 -4.1 24.6
12:35 1024 30.24 853 25.19 30 86 10 -4.6 23.8
12:40 1024 30.24 853 25.19 30.1 86.1 10 -4.4 24.1
12:45 1024 30.24 853 25.19 30.3 86.5 10 -4.6 23.7
12:50 1024 30.24 853 25.19 30.7 87.3 10 -3.9 25
12:55 1024 30.24 853 25.19 31.3 88.3 10 -3.9 24.9
13:00 1024 30.24 853 25.19 30.9 87.7 10 -4.4 24
13:05 1024 30.24 853 25.19 30.9 87.6 10 -4.1 24.7
13:10 1024 30.24 853 25.19 31.1 87.9 10 -3.7 25.3
13:15 1024 30.24 853 25.19 30.8 87.4 11 -3.3 26
13:20 1024 30.24 853 25.19 30.7 87.2 10 -4.4 24
13:25 1023 30.21 853 25.19 31.1 88 10 -3.8 25.2
13:30 1023 30.21 853 25.19 30.9 87.5 8 -6.5 20.4
13:35 1023 30.21 853 25.19 30.8 87.4 8 -7.4 18.8
13:40 1023 30.21 852 25.16 30.8 87.4 8 -7.7 18.1
13:45 1023 30.21 852 25.16 31.2 88.1 9 -5.7 21.7
13:50 1023 30.21 852 25.16 31.5 88.6 9 -5 23
13:55 1023 30.21 852 25.16 31.8 89.2 10 -3.1 26.3
14:00 1023 30.21 852 25.16 31.4 88.6 9 -5.6 21.9
14:05 1023 30.21 852 25.16 31.7 89 8 -5.5 22
14:10 1023 30.21 852 25.16 31.3 88.3 8 -5.9 21.3
14:15 1023 30.21 852 25.16 31.4 88.4 8 -6.1 21
14:20 1023 30.21 852 25.16 31.1 87.9 8 -6 21.1
14:25 1023 30.21 852 25.16 31.6 89 9 -5.4 22.2
14:30 1023 30.21 852 25.16 32 89.6 8 -5.9 21.3
14:35 1023 30.21 852 25.16 30.9 87.5 8 -6.7 20
14:40 1023 30.21 852 25.16 30.2 86.4 9 -6.5 20.2
14:45 1023 30.21 852 25.16 30.2 86.4 8 -7.4 18.7
14:50 1023 30.21 852 25.16 30.2 86.4 8 -8 17.5
14:55 1023 30.21 852 25.16 30.4 86.7 7 -8.3 17
15:00 1023 30.21 852 25.16 30.3 86.5 8 -7.8 18
15:05 1023 30.21 852 25.16 30.1 86.2 7 -9.4 15.1
15:10 1023 30.21 852 25.16 31 87.8 7 -8 17.6
15:15 1022 30.18 852 25.16 31.9 89.4 6 -9.2 15.5
15:15 1022 30.18 852 25.16 31.9 89.4 6 -9.2 15.5
15:20 1022 30.18 852 25.16 31.9 89.3 6 -10.2 13.6
15:25 1022 30.18 852 25.16 32.3 90.2 6 -8.6 16.5
15:30 1022 30.18 852 25.16 32 89.5 7 -7.5 18.5
15:35 1022 30.18 852 25.16 31.7 89 8 -6.7 19.9
15:40 1022 30.18 852 25.16 31.6 89 7 -8 17.5
15:45 1022 30.18 852 25.16 31.7 89 7 -8.4 16.9
15:50 1022 30.18 851 25.13 32.5 90.4 7 -8.3 17.1
15:55 1022 30.18 851 25.13 31.7 89.1 7 -8.4 16.8
16:00 1022 30.18 851 25.13 30.9 87.5 7 -7.9 17.7
16:05 1022 30.18 851 25.13 31.3 88.4 7 -7.6 18.3
16:10 1022 30.18 851 25.13 31.8 89.2 7 -8.3 17.1
16:15 1022 30.18 851 25.13 31.5 88.6 7 -7.4 18.7
16:20 1022 30.18 851 25.13 31.7 89 7 -7.5 18.5
16:25 1022 30.18 851 25.13 31.2 88.1 8 -6.4 20.4
16:30 1022 30.18 851 25.13 31.3 88.4 8 -6.8 19.8
16:35 1022 30.18 851 25.13 31.5 88.7 7 -7.5 18.5
16:40 1022 30.18 851 25.13 31.4 88.6 8 -6.5 20.4
16:45 1022 30.18 851 25.13 32 89.7 8 -6.7 20
16:50 1022 30.18 851 25.13 32.2 89.9 9 -4.8 23.3
16:55 1022 30.18 851 25.13 31.9 89.5 9 -5.2 22.7
17:00 1022 30.18 851 25.13 31.9 89.5 8 -6 21.2
17:05 1022 30.18 851 25.13 31.2 88.1 8 -6.9 19.6
17:10 1022 30.18 851 25.13 30.9 87.6 8 -6.2 20.9
17:15 1022 30.18 851 25.13 30.6 87 8 -7.4 18.6
17:20 1022 30.18 851 25.13 30.4 86.7 8 -7.1 19.2
17:25 1022 30.18 851 25.13 30.4 86.7 8 -6.9 19.6
17:30 1022 30.18 851 25.13 30.2 86.3 9 -5.8 21.5
17:35 1022 30.18 851 25.13 30 85.9 9 -5.5 22.1
17:40 1022 30.18 851 25.13 29.9 85.7 10 -5 23
17:45 1022 30.18 851 25.13 29.9 85.7 10 -5.3 22.4
17:50 1022 30.18 851 25.13 29.8 85.6 12 -2.6 27.4
17:55 1022 30.18 851 25.13 29.7 85.5 10 -5 22.9
18:00 1022 30.18 851 25.13 29.6 85.3 10 -5.4 22.4
18:05 1022 30.18 851 25.13 29.5 85.2 10 -5.5 22
18:10 1022 30.18 851 25.13 29.5 85.1 9 -6.4 20.5
18:15 1022 30.18 851 25.13 29.4 85 9 -6.4 20.4
18:20 1022 30.18 851 25.13 29.3 84.8 9 -6.2 20.8
18:25 1022 30.18 851 25.13 29.2 84.6 14 -1 30.2
18:30 1022 30.18 851 25.13 28.9 84 20 3.7 38.6
18:35 1022 30.18 851 25.13 28.3 83 24 6.3 43.3
18:40 1022 30.18 851 25.13 27.1 80.7 22 3.8 38.9
18:45 1022 30.18 851 25.13 26.2 79.2 17 -0.8 30.6
18:50 1022 30.18 851 25.13 26.3 79.4 23 3.7 38.7
18:55 1022 30.18 851 25.13 25.9 78.7 24 4.3 39.8
19:00 1022 30.18 851 25.13 25 77 25 3.6 38.5
19:05 1022 30.18 851 25.13 24.5 76 28 4.9 40.8
19:10 1022 30.18 851 25.13 23.8 74.8 24 2.2 35.9
19:15 1022 30.18 851 25.13 23.3 73.9 23 1.5 34.6
19:20 1022 30.18 851 25.13 23 73.4 23 1 33.7
19:25 1022 30.18 851 25.13 22.8 73 24 1.1 34
19:30 1022 30.18 851 25.13 22.1 71.8 26 1.8 35.2
19:35 1022 30.18 851 25.13 21.4 70.6 25 0.5 33
19:40 1022 30.18 851 25.13 21.3 70.3 26 1.2 34.1
19:45 1022 30.18 851 25.13 21.2 70.2 25 0.7 33.3
19:50 1022 30.18 851 25.13 21.1 70 22 -1.1 30
19:55 1022 30.18 851 25.13 21.8 71.2 18 -3.5 25.6
20:00 1022 30.18 851 25.13 22 71.6 21 -1.4 29.5
20:05 1022 30.18 851 25.13 21.3 70.3 21 -2 28.4
20:10 1022 30.18 851 25.13 21.2 70.1 20 -2.7 27.1
20:15 1022 30.18 851 25.13 21.4 70.4 19 -3 26.6
20:20 1022 30.18 851 25.13 21.4 70.6 19 -3.1 26.5
20:25 1022 30.18 851 25.13 21.5 70.7 18 -3.3 26
20:30 1022 30.18 851 25.13 21.4 70.6 19 -3.2 26.2
20:35 1022 30.18 851 25.13 21.2 70.1 19 -3 26.6
20:40 1022 30.18 852 25.16 20.8 69.4 20 -2.9 26.7
20:45 1022 30.18 852 25.16 20.4 68.7 20 -3.2 26.3
20:50 1022 30.18 852 25.16 20.4 68.8 19 -3.5 25.6
20:55 1022 30.18 852 25.16 20.5 68.9 19 -3.8 25.1
21:00 1022 30.18 852 25.16 20.5 69 19 -3.8 25.2
21:05 1022 30.18 852 25.16 20.5 68.9 19 -4 24.8
21:10 1022 30.18 852 25.16 20.8 69.4 17 -4.7 23.5
21:15 1022 30.18 852 25.16 20.9 69.5 18 -4.2 24.5
21:20 1022 30.18 852 25.16 20.4 68.8 17 -5 23
21:25 1022 30.18 852 25.16 20.9 69.7 17 -5.2 22.6
21:30 1022 30.18 852 25.16 21 69.7 18 -4.4 24
21:35 1023 30.21 852 25.16 20.8 69.4 17 -4.7 23.5
21:40 1023 30.21 852 25.16 20.5 68.9 18 -4.4 24
21:45 1023 30.21 852 25.16 20.1 68.2 19 -4 24.9
21:50 1023 30.21 852 25.16 20 68 19 -4.5 23.9
21:55 1023 30.21 852 25.16 20.3 68.5 17 -5.1 22.7
22:00 1023 30.21 852 25.16 20.7 69.2 19 -3.8 25.2
22:05 1023 30.21 852 25.16 20.5 69 18 -4.4 24.1
22:10 1023 30.21 852 25.16 20.6 69.1 18 -4.6 23.7
22:15 1023 30.21 852 25.16 20.8 69.4 16 -5.8 21.6
22:20 1023 30.21 852 25.16 20.9 69.6 15 -6.2 20.8
22:25 1023 30.21 852 25.16 21.4 70.6 14 -6.6 20.2
22:30 1023 30.21 852 25.16 22.2 71.9 14 -6.2 20.8
22:35 1023 30.21 852 25.16 22.3 72.1 15 -5.7 21.7
22:40 1023 30.21 852 25.16 21.7 71 18 -3.6 25.5
22:45 1023 30.21 852 25.16 20.8 69.5 19 -3.5 25.7
22:50 1023 30.21 852 25.16 20.5 68.8 18 -4.3 24.3
22:55 1023 30.21 852 25.16 20.9 69.7 20 -2.9 26.7
23:00 1023 30.21 852 25.16 20 68.1 23 -1.6 29.2
23:05 1023 30.21 852 25.16 19.1 66.4 24 -2.1 28.3
23:10 1023 30.21 852 25.16 18.9 66 24 -2 28.4
23:15 1023 30.21 852 25.16 18.4 65.1 26 -1.5 29.4
23:20 1023 30.21 852 25.16 17.7 63.9 28 -1.1 30.1
23:25 1023 30.21 852 25.16 17.4 63.3 26 -2.3 27.9
23:30 1023 30.21 852 25.16 17.7 63.9 25 -2.4 27.6
23:35 1023 30.21 852 25.16 18.1 64.5 23 -3.4 25.8
23:40 1023 30.21 852 25.16 18.6 65.5 22 -3.4 25.9
23:45 1023 30.21 852 25.16 18.7 65.7 22 -3.3 26
23:50 1023 30.21 852 25.16 18.6 65.5 23 -2.8 26.9
23:55 1023 30.21 852 25.16 18.3 64.9 24 -2.7 27.2
24:00 1023 30.21 852 25.16 18.2 64.7 25 -2.2 28.1